createdAt,value
2017-03-03T00:00:31.694Z,1007.75
2017-03-03T00:01:31.662Z,1007.74
2017-03-03T00:02:31.644Z,1007.71
2017-03-03T00:03:31.611Z,1007.71
2017-03-03T00:04:31.589Z,1007.73
2017-03-03T00:05:31.572Z,1007.68
2017-03-03T00:06:31.540Z,1007.72
2017-03-03T00:07:31.524Z,1007.7
2017-03-03T00:08:31.493Z,1007.7
2017-03-03T00:09:31.470Z,1007.68
2017-03-03T00:10:31.449Z,1007.71
2017-03-03T00:11:31.429Z,1007.61
2017-03-03T00:12:31.402Z,1007.66
2017-03-03T00:13:31.376Z,1007.63
2017-03-03T00:14:31.358Z,1007.62
2017-03-03T00:15:31.335Z,1007.63
2017-03-03T00:16:31.304Z,1007.65
2017-03-03T00:17:31.280Z,1007.65
2017-03-03T00:18:31.266Z,1007.64
2017-03-03T00:19:31.235Z,1007.62
2017-03-03T00:20:31.207Z,1007.62
2017-03-03T00:21:31.191Z,1007.64
2017-03-03T00:22:31.162Z,1007.55
2017-03-03T00:23:31.141Z,1007.57
2017-03-03T00:24:31.120Z,1007.54
2017-03-03T00:25:31.090Z,1007.52
2017-03-03T00:26:31.069Z,1007.48
2017-03-03T00:27:31.050Z,1007.52
2017-03-03T00:28:31.018Z,1007.47
2017-03-03T00:29:30.997Z,1007.47
2017-03-03T00:30:30.972Z,1007.51
2017-03-03T00:31:30.951Z,1007.49
2017-03-03T00:32:30.922Z,1007.44
2017-03-03T00:33:30.901Z,1007.46
2017-03-03T00:34:30.876Z,1007.46
2017-03-03T00:35:30.855Z,1007.42
2017-03-03T00:36:30.846Z,1007.42
2017-03-03T00:37:30.803Z,1007.46
2017-03-03T00:38:30.786Z,1007.42
2017-03-03T00:39:30.756Z,1007.43
2017-03-03T00:40:30.732Z,1007.42
2017-03-03T00:41:30.712Z,1007.35
2017-03-03T00:42:30.684Z,1007.39
2017-03-03T00:43:30.662Z,1007.33
2017-03-03T00:44:30.638Z,1007.36
2017-03-03T00:45:30.619Z,1007.36
2017-03-03T00:46:30.594Z,1007.34
2017-03-03T00:47:30.569Z,1007.35
2017-03-03T00:48:30.542Z,1007.31
2017-03-03T00:49:30.528Z,1007.3
2017-03-03T00:50:30.496Z,1007.34
2017-03-03T00:51:30.471Z,1007.37
2017-03-03T00:52:30.449Z,1007.34
2017-03-03T00:53:30.436Z,1007.36
2017-03-03T00:54:30.405Z,1007.35
2017-03-03T00:55:30.378Z,1007.33
2017-03-03T00:56:30.353Z,1007.33
2017-03-03T00:57:30.329Z,1007.31
2017-03-03T00:58:30.304Z,1007.29
2017-03-03T00:59:30.285Z,1007.32
2017-03-03T01:00:30.256Z,1007.32
2017-03-03T01:01:30.239Z,1007.33
2017-03-03T01:02:30.210Z,1007.3
2017-03-03T01:03:30.188Z,1007.33
2017-03-03T01:04:30.164Z,1007.31
2017-03-03T01:05:30.140Z,1007.3
2017-03-03T01:06:30.118Z,1007.32
2017-03-03T01:07:30.093Z,1007.3
2017-03-03T01:08:30.076Z,1007.27
2017-03-03T01:09:30.043Z,1007.26
2017-03-03T01:10:30.019Z,1007.29
2017-03-03T01:11:29.995Z,1007.27
2017-03-03T01:12:29.975Z,1007.26
2017-03-03T01:13:29.948Z,1007.24
2017-03-03T01:14:29.924Z,1007.26
2017-03-03T01:15:29.907Z,1007.26
2017-03-03T01:16:29.878Z,1007.25
2017-03-03T01:17:29.852Z,1007.23
2017-03-03T01:18:29.832Z,1007.24
2017-03-03T01:19:29.810Z,1007.19
2017-03-03T01:20:29.781Z,1007.2
2017-03-03T01:21:29.762Z,1007.22
2017-03-03T01:22:29.734Z,1007.16
2017-03-03T01:23:29.709Z,1007.17
2017-03-03T01:24:29.687Z,1007.18
2017-03-03T01:25:29.661Z,1007.18
2017-03-03T01:26:29.645Z,1007.18
2017-03-03T01:27:29.619Z,1007.18
2017-03-03T01:28:29.594Z,1007.18
2017-03-03T01:29:29.567Z,1007.22
2017-03-03T01:30:29.546Z,1007.23
2017-03-03T01:31:29.520Z,1007.17
2017-03-03T01:32:29.501Z,1007.16
2017-03-03T01:33:29.477Z,1007.11
2017-03-03T01:34:29.451Z,1007.12
2017-03-03T01:35:29.425Z,1007.09
2017-03-03T01:36:29.412Z,1007.1
2017-03-03T01:37:29.380Z,1007.08
2017-03-03T01:38:29.352Z,1007.06
2017-03-03T01:39:29.332Z,1007.08
2017-03-03T01:40:29.303Z,1007.05
2017-03-03T01:41:29.280Z,1006.99
2017-03-03T01:42:29.259Z,1007
2017-03-03T01:43:29.239Z,1006.99
2017-03-03T01:44:29.208Z,1006.99
2017-03-03T01:45:29.183Z,1007.02
2017-03-03T01:46:29.158Z,1006.98
2017-03-03T01:47:29.138Z,1006.99
2017-03-03T01:48:29.111Z,1006.95
2017-03-03T01:49:29.086Z,1006.97
2017-03-03T01:50:29.066Z,1006.95
2017-03-03T01:51:29.040Z,1006.96
2017-03-03T01:52:29.014Z,1006.95
2017-03-03T01:53:29.000Z,1006.92
2017-03-03T01:54:28.968Z,1006.9
2017-03-03T01:55:28.943Z,1006.88
2017-03-03T01:56:28.922Z,1006.88
2017-03-03T01:57:28.896Z,1006.88
2017-03-03T01:58:28.956Z,1006.9
2017-03-03T01:59:28.845Z,1006.91
2017-03-03T02:00:28.831Z,1006.92
2017-03-03T02:01:28.802Z,1006.84
2017-03-03T02:02:28.776Z,1006.83
2017-03-03T02:03:28.749Z,1006.85
2017-03-03T02:04:28.726Z,1006.82
2017-03-03T02:05:28.707Z,1006.82
2017-03-03T02:06:28.677Z,1006.86
2017-03-03T02:07:28.652Z,1006.85
2017-03-03T02:08:28.629Z,1006.87
2017-03-03T02:09:28.603Z,1006.86
2017-03-03T02:10:28.581Z,1006.91
2017-03-03T02:11:28.556Z,1006.89
2017-03-03T02:12:28.535Z,1006.89
2017-03-03T02:13:28.511Z,1006.89
2017-03-03T02:14:28.490Z,1006.89
2017-03-03T02:15:28.462Z,1006.86
2017-03-03T02:16:28.443Z,1006.83
2017-03-03T02:17:28.411Z,1006.85
2017-03-03T02:18:28.385Z,1006.82
2017-03-03T02:19:28.360Z,1006.84
2017-03-03T02:20:28.336Z,1006.79
2017-03-03T02:21:28.320Z,1006.79
2017-03-03T02:22:28.285Z,1006.79
2017-03-03T02:23:28.268Z,1006.79
2017-03-03T02:24:28.237Z,1006.75
2017-03-03T02:25:28.216Z,1006.78
2017-03-03T02:26:28.191Z,1006.74
2017-03-03T02:27:28.167Z,1006.78
2017-03-03T02:28:28.138Z,1006.78
2017-03-03T02:29:28.115Z,1006.79
2017-03-03T02:30:28.095Z,1006.79
2017-03-03T02:31:28.069Z,1006.8
2017-03-03T02:32:28.043Z,1006.74
2017-03-03T02:33:28.017Z,1006.78
2017-03-03T02:34:27.992Z,1006.76
2017-03-03T02:35:27.973Z,1006.77
2017-03-03T02:36:27.952Z,1006.74
2017-03-03T02:37:27.924Z,1006.71
2017-03-03T02:38:27.901Z,1006.69
2017-03-03T02:39:27.871Z,1006.67
2017-03-03T02:40:27.847Z,1006.66
2017-03-03T02:41:27.826Z,1006.67
2017-03-03T02:42:27.798Z,1006.67
2017-03-03T02:43:27.775Z,1006.64
2017-03-03T02:44:27.750Z,1006.6
2017-03-03T02:45:27.726Z,1006.55
2017-03-03T02:46:27.699Z,1006.54
2017-03-03T02:47:27.676Z,1006.53
2017-03-03T02:48:27.650Z,1006.54
2017-03-03T02:49:27.631Z,1006.55
2017-03-03T02:50:27.600Z,1006.57
2017-03-03T02:51:27.581Z,1006.53
2017-03-03T02:52:27.554Z,1006.5
2017-03-03T02:53:27.528Z,1006.46
2017-03-03T02:54:27.507Z,1006.44
2017-03-03T02:55:27.482Z,1006.47
2017-03-03T02:56:27.463Z,1006.43
2017-03-03T02:57:27.430Z,1006.45
2017-03-03T02:58:27.410Z,1006.44
2017-03-03T02:59:27.381Z,1006.44
2017-03-03T03:00:27.362Z,1006.44
2017-03-03T03:01:27.333Z,1006.45
2017-03-03T03:02:27.307Z,1006.4
2017-03-03T03:03:27.282Z,1006.41
2017-03-03T03:04:27.256Z,1006.4
2017-03-03T03:05:27.238Z,1006.35
2017-03-03T03:06:27.211Z,1006.35
2017-03-03T03:07:27.193Z,1006.36
2017-03-03T03:08:27.168Z,1006.35
2017-03-03T03:09:27.135Z,1006.32
2017-03-03T03:10:27.111Z,1006.28
2017-03-03T03:11:27.087Z,1006.25
2017-03-03T03:12:27.063Z,1006.21
2017-03-03T03:13:27.092Z,1006.22
2017-03-03T03:14:27.014Z,1006.23
2017-03-03T03:15:26.989Z,1006.23
2017-03-03T03:16:26.971Z,1006.18
2017-03-03T03:17:26.941Z,1006.2
2017-03-03T03:18:26.921Z,1006.22
2017-03-03T03:19:26.992Z,1006.21
2017-03-03T03:20:26.868Z,1006.22
2017-03-03T03:21:26.848Z,1006.24
2017-03-03T03:22:26.817Z,1006.2
2017-03-03T03:23:26.797Z,1006.19
2017-03-03T03:24:26.771Z,1006.19
2017-03-03T03:25:26.747Z,1006.18
2017-03-03T03:26:26.725Z,1006.17
2017-03-03T03:27:26.752Z,1006.16
2017-03-03T03:28:26.675Z,1006.13
2017-03-03T03:29:26.652Z,1006.19
2017-03-03T03:30:26.624Z,1006.18
2017-03-03T03:31:26.600Z,1006.14
2017-03-03T03:32:26.575Z,1006.11
2017-03-03T03:33:26.663Z,1006.09
2017-03-03T03:34:26.524Z,1006.08
2017-03-03T03:35:26.501Z,1006.06
2017-03-03T03:36:26.476Z,1006.05
2017-03-03T03:37:26.450Z,1006.01
2017-03-03T03:38:26.430Z,1005.99
2017-03-03T03:39:26.403Z,1005.94
2017-03-03T03:40:26.390Z,1005.94
2017-03-03T03:41:26.355Z,1005.94
2017-03-03T03:42:26.327Z,1005.96
2017-03-03T03:43:26.307Z,1005.96
2017-03-03T03:44:26.287Z,1005.93
2017-03-03T03:45:26.256Z,1005.93
2017-03-03T03:46:26.232Z,1005.91
2017-03-03T03:47:26.207Z,1005.94
2017-03-03T03:48:26.184Z,1005.92
2017-03-03T03:49:26.154Z,1005.9
2017-03-03T03:50:26.131Z,1005.86
2017-03-03T03:51:26.115Z,1005.82
2017-03-03T03:52:26.082Z,1005.77
2017-03-03T03:53:26.061Z,1005.75
2017-03-03T03:54:26.036Z,1005.74
2017-03-03T03:55:26.008Z,1005.76
2017-03-03T03:56:25.984Z,1005.76
2017-03-03T03:57:25.961Z,1005.75
2017-03-03T03:58:25.936Z,1005.75
2017-03-03T03:59:25.911Z,1005.75
2017-03-03T04:00:25.882Z,1005.76
2017-03-03T04:01:25.861Z,1005.77
2017-03-03T04:02:25.840Z,1005.75
2017-03-03T04:03:25.812Z,1005.7
2017-03-03T04:04:25.786Z,1005.67
2017-03-03T04:05:25.760Z,1005.71
2017-03-03T04:06:25.734Z,1005.73
2017-03-03T04:07:25.711Z,1005.77
2017-03-03T04:08:25.682Z,1005.8
2017-03-03T04:09:25.673Z,1005.76
2017-03-03T04:10:25.643Z,1005.78
2017-03-03T04:11:25.613Z,1005.76
2017-03-03T04:12:25.583Z,1005.81
2017-03-03T04:13:25.562Z,1005.76
2017-03-03T04:14:25.537Z,1005.73
2017-03-03T04:15:25.511Z,1005.73
2017-03-03T04:16:25.487Z,1005.72
2017-03-03T04:17:25.459Z,1005.71
2017-03-03T04:18:25.438Z,1005.69
2017-03-03T04:19:25.417Z,1005.68
2017-03-03T04:20:25.388Z,1005.7
2017-03-03T04:21:25.361Z,1005.66
2017-03-03T04:22:25.339Z,1005.66
2017-03-03T04:23:25.314Z,1005.62
2017-03-03T04:24:25.289Z,1005.6
2017-03-03T04:25:25.266Z,1005.57
2017-03-03T04:26:25.238Z,1005.58
2017-03-03T04:27:25.216Z,1005.58
2017-03-03T04:28:25.187Z,1005.56
2017-03-03T04:29:25.169Z,1005.49
2017-03-03T04:30:25.139Z,1005.46
2017-03-03T04:31:25.121Z,1005.46
2017-03-03T04:32:25.091Z,1005.46
2017-03-03T04:33:25.071Z,1005.43
2017-03-03T04:34:25.089Z,1005.4
2017-03-03T04:35:25.024Z,1005.32
2017-03-03T04:36:24.989Z,1005.3
2017-03-03T04:37:24.966Z,1005.27
2017-03-03T04:38:24.995Z,1005.32
2017-03-03T04:39:24.918Z,1005.28
2017-03-03T04:40:24.891Z,1005.3
2017-03-03T04:41:24.867Z,1005.31
2017-03-03T04:42:24.847Z,1005.26
2017-03-03T04:43:24.816Z,1005.27
2017-03-03T04:44:24.843Z,1005.27
2017-03-03T04:45:24.773Z,1005.29
2017-03-03T04:46:24.744Z,1005.3
2017-03-03T04:47:24.723Z,1005.29
2017-03-03T04:48:24.695Z,1005.27
2017-03-03T04:49:24.672Z,1005.26
2017-03-03T04:50:24.645Z,1005.23
2017-03-03T04:51:24.617Z,1005.2
2017-03-03T04:52:24.680Z,1005.19
2017-03-03T04:53:24.572Z,1005.19
2017-03-03T04:54:24.550Z,1005.15
2017-03-03T04:55:24.522Z,1005.16
2017-03-03T04:56:24.499Z,1005.14
2017-03-03T04:57:24.476Z,1005.13
2017-03-03T04:58:24.561Z,1005.13
2017-03-03T04:59:24.419Z,1005.12
2017-03-03T05:00:24.412Z,1005.12
2017-03-03T05:01:24.373Z,1005.16
2017-03-03T05:02:24.346Z,1005.12
2017-03-03T05:03:24.326Z,1005.11
2017-03-03T05:04:24.298Z,1005.08
2017-03-03T05:05:24.270Z,1005.09
2017-03-03T05:06:24.248Z,1005.08
2017-03-03T05:07:24.225Z,1005.05
2017-03-03T05:08:24.232Z,1005.05
2017-03-03T05:09:24.173Z,1005.04
2017-03-03T05:10:24.149Z,1005.01
2017-03-03T05:11:24.126Z,1004.99
2017-03-03T05:12:24.101Z,1005
2017-03-03T05:13:24.080Z,1005.03
2017-03-03T05:14:24.047Z,1004.99
2017-03-03T05:15:24.025Z,1005.01
2017-03-03T05:16:23.998Z,1004.98
2017-03-03T05:17:23.979Z,1004.95
2017-03-03T05:18:23.948Z,1004.95
2017-03-03T05:19:23.923Z,1004.96
2017-03-03T05:20:23.899Z,1004.96
2017-03-03T05:21:23.873Z,1004.93
2017-03-03T05:22:23.850Z,1004.91
2017-03-03T05:23:23.824Z,1004.87
2017-03-03T05:24:23.804Z,1004.86
2017-03-03T05:25:23.776Z,1004.89
2017-03-03T05:26:23.747Z,1004.86
2017-03-03T05:27:23.722Z,1004.86
2017-03-03T05:28:23.698Z,1004.82
2017-03-03T05:29:23.676Z,1004.85
2017-03-03T05:30:23.652Z,1004.77
2017-03-03T05:31:23.629Z,1004.78
2017-03-03T05:32:23.601Z,1004.76
2017-03-03T05:33:23.574Z,1004.72
2017-03-03T05:34:23.549Z,1004.7
2017-03-03T05:35:23.523Z,1004.73
2017-03-03T05:36:23.501Z,1004.67
2017-03-03T05:37:23.482Z,1004.76
2017-03-03T05:38:23.451Z,1004.73
2017-03-03T05:39:23.429Z,1004.73
2017-03-03T05:40:23.407Z,1004.72
2017-03-03T05:41:23.376Z,1004.72
2017-03-03T05:42:23.355Z,1004.75
2017-03-03T05:43:23.325Z,1004.76
2017-03-03T05:44:23.299Z,1004.74
2017-03-03T05:45:23.282Z,1004.73
2017-03-03T05:46:23.250Z,1004.69
2017-03-03T05:47:23.228Z,1004.7
2017-03-03T05:48:23.202Z,1004.68
2017-03-03T05:49:23.181Z,1004.65
2017-03-03T05:50:23.151Z,1004.66
2017-03-03T05:51:23.139Z,1004.65
2017-03-03T05:52:23.100Z,1004.65
2017-03-03T05:53:23.081Z,1004.63
2017-03-03T05:54:23.050Z,1004.64
2017-03-03T05:55:23.035Z,1004.67
2017-03-03T05:56:23.008Z,1004.66
2017-03-03T05:57:22.976Z,1004.67
2017-03-03T05:58:22.956Z,1004.65
2017-03-03T05:59:22.977Z,1004.65
2017-03-03T06:00:22.901Z,1004.6
2017-03-03T06:01:22.876Z,1004.61
2017-03-03T06:02:22.855Z,1004.61
2017-03-03T06:03:22.876Z,1004.59
2017-03-03T06:04:22.805Z,1004.58
2017-03-03T06:05:22.876Z,1004.58
2017-03-03T06:06:22.753Z,1004.6
2017-03-03T06:07:22.732Z,1004.59
2017-03-03T06:08:22.701Z,1004.57
2017-03-03T06:09:22.705Z,1004.57
2017-03-03T06:10:22.652Z,1004.54
2017-03-03T06:11:22.641Z,1004.51
2017-03-03T06:12:22.599Z,1004.5
2017-03-03T06:13:22.682Z,1004.46
2017-03-03T06:14:22.549Z,1004.47
2017-03-03T06:15:22.527Z,1004.43
2017-03-03T06:16:22.502Z,1004.39
2017-03-03T06:17:22.601Z,1004.36
2017-03-03T06:18:22.458Z,1004.39
2017-03-03T06:19:22.432Z,1004.35
2017-03-03T06:20:22.396Z,1004.33
2017-03-03T06:21:22.374Z,1004.3
2017-03-03T06:22:22.349Z,1004.33
2017-03-03T06:23:22.350Z,1004.33
2017-03-03T06:24:22.300Z,1004.34
2017-03-03T06:25:22.271Z,1004.3
2017-03-03T06:26:22.249Z,1004.29
2017-03-03T06:27:22.221Z,1004.31
2017-03-03T06:28:22.200Z,1004.3
2017-03-03T06:29:22.170Z,1004.31
2017-03-03T06:30:22.144Z,1004.27
2017-03-03T06:31:22.119Z,1004.29
2017-03-03T06:32:22.096Z,1004.28
2017-03-03T06:33:22.070Z,1004.32
2017-03-03T06:34:22.047Z,1004.26
2017-03-03T06:35:22.029Z,1004.3
2017-03-03T06:36:21.988Z,1004.28
2017-03-03T06:37:21.967Z,1004.25
2017-03-03T06:38:21.940Z,1004.24
2017-03-03T06:39:21.915Z,1004.27
2017-03-03T06:40:21.888Z,1004.26
2017-03-03T06:41:21.863Z,1004.29
2017-03-03T06:42:21.844Z,1004.27
2017-03-03T06:43:21.813Z,1004.35
2017-03-03T06:44:21.792Z,1004.39
2017-03-03T06:45:21.762Z,1004.38
2017-03-03T06:46:21.743Z,1004.45
2017-03-03T06:47:21.712Z,1004.46
2017-03-03T06:48:21.686Z,1004.42
2017-03-03T06:49:21.667Z,1004.42
2017-03-03T06:50:21.640Z,1004.39
2017-03-03T06:51:21.620Z,1004.46
2017-03-03T06:52:21.590Z,1004.5
2017-03-03T06:53:21.568Z,1004.57
2017-03-03T06:54:21.540Z,1004.52
2017-03-03T06:55:21.517Z,1004.56
2017-03-03T06:56:21.496Z,1004.52
2017-03-03T06:57:21.472Z,1004.52
2017-03-03T06:58:21.453Z,1004.56
2017-03-03T06:59:21.427Z,1004.57
2017-03-03T07:00:21.407Z,1004.59
2017-03-03T07:01:21.386Z,1004.58
2017-03-03T07:02:21.362Z,1004.6
2017-03-03T07:03:21.343Z,1004.66
2017-03-03T07:04:21.317Z,1004.65
2017-03-03T07:05:21.299Z,1004.77
2017-03-03T07:06:21.281Z,1004.83
2017-03-03T07:07:21.254Z,1004.81
2017-03-03T07:08:21.243Z,1004.82
2017-03-03T07:09:21.216Z,1004.85
2017-03-03T07:10:21.197Z,1004.82
2017-03-03T07:11:21.178Z,1004.84
2017-03-03T07:12:21.155Z,1004.87
2017-03-03T07:13:21.137Z,1004.86
2017-03-03T07:14:21.117Z,1004.92
2017-03-03T07:15:21.097Z,1004.89
2017-03-03T07:16:21.077Z,1004.87
2017-03-03T07:17:21.056Z,1004.77
2017-03-03T07:18:21.044Z,1004.88
2017-03-03T07:19:21.026Z,1004.94
2017-03-03T07:20:20.999Z,1004.9
2017-03-03T07:21:20.986Z,1004.7
2017-03-03T07:22:20.971Z,1004.68
2017-03-03T07:23:20.947Z,1004.78
2017-03-03T07:24:20.930Z,1004.88
2017-03-03T07:25:20.907Z,1004.97
2017-03-03T07:26:20.890Z,1005.02
2017-03-03T07:27:20.877Z,1005.07
2017-03-03T07:28:20.858Z,1005.13
2017-03-03T07:29:20.837Z,1005.13
2017-03-03T07:30:20.819Z,1005.1
2017-03-03T07:31:20.808Z,1005.11
2017-03-03T07:32:20.783Z,1005.08
2017-03-03T07:33:20.766Z,1004.99
2017-03-03T07:34:20.752Z,1004.92
2017-03-03T07:35:20.736Z,1004.87
2017-03-03T07:36:20.718Z,1004.75
2017-03-03T07:37:20.703Z,1004.74
2017-03-03T07:38:20.683Z,1004.81
2017-03-03T07:39:20.670Z,1004.82
2017-03-03T07:40:20.652Z,1004.83
2017-03-03T07:41:20.643Z,1004.82
2017-03-03T07:42:20.623Z,1004.85
2017-03-03T07:43:20.603Z,1004.87
2017-03-03T07:44:20.586Z,1004.89
2017-03-03T07:45:20.570Z,1004.9
2017-03-03T07:46:20.557Z,1004.94
2017-03-03T07:47:20.539Z,1004.96
2017-03-03T07:48:20.531Z,1004.95
2017-03-03T07:49:20.508Z,1004.96
2017-03-03T07:50:20.497Z,1004.91
2017-03-03T07:51:20.481Z,1004.86
2017-03-03T07:52:20.463Z,1004.84
2017-03-03T07:53:20.446Z,1004.93
2017-03-03T07:54:20.437Z,1004.94
2017-03-03T07:55:20.415Z,1004.95
2017-03-03T07:56:20.405Z,1004.84
2017-03-03T07:57:20.390Z,1004.76
2017-03-03T07:58:20.372Z,1004.83
2017-03-03T07:59:20.363Z,1004.79
2017-03-03T08:00:20.342Z,1004.72
2017-03-03T08:01:20.331Z,1004.7
2017-03-03T08:02:20.321Z,1004.74
2017-03-03T08:03:20.300Z,1004.74
2017-03-03T08:04:20.291Z,1004.77
2017-03-03T08:05:20.270Z,1004.79
2017-03-03T08:06:20.260Z,1004.77
2017-03-03T08:07:20.240Z,1004.85
2017-03-03T08:08:20.220Z,1004.86
2017-03-03T08:09:20.208Z,1004.79
2017-03-03T08:10:20.198Z,1004.63
2017-03-03T08:11:20.177Z,1004.64
2017-03-03T08:12:20.163Z,1004.57
2017-03-03T08:13:20.145Z,1004.6
2017-03-03T08:14:20.134Z,1004.59
2017-03-03T08:15:20.115Z,1004.63
2017-03-03T08:16:20.097Z,1004.65
2017-03-03T08:17:20.083Z,1004.64
2017-03-03T08:18:20.073Z,1004.71
2017-03-03T08:19:20.064Z,1004.72
2017-03-03T08:20:20.040Z,1004.75
2017-03-03T08:21:20.022Z,1004.66
2017-03-03T08:22:20.012Z,1004.63
2017-03-03T08:23:19.988Z,1004.66
2017-03-03T08:24:19.981Z,1004.62
2017-03-03T08:25:19.964Z,1004.59
2017-03-03T08:26:19.949Z,1004.61
2017-03-03T08:27:19.929Z,1004.62
2017-03-03T08:28:19.918Z,1004.6
2017-03-03T08:29:19.901Z,1004.6
2017-03-03T08:30:19.892Z,1004.59
2017-03-03T08:31:19.876Z,1004.63
2017-03-03T08:32:19.868Z,1004.62
2017-03-03T08:33:19.858Z,1004.6
2017-03-03T08:34:19.837Z,1004.6
2017-03-03T08:35:19.825Z,1004.56
2017-03-03T08:36:19.814Z,1004.57
2017-03-03T08:37:19.801Z,1004.62
2017-03-03T08:38:19.793Z,1004.53
2017-03-03T08:39:19.778Z,1004.59
2017-03-03T08:40:19.776Z,1004.57
2017-03-03T08:41:19.759Z,1004.51
2017-03-03T08:42:19.745Z,1004.55
2017-03-03T08:43:19.740Z,1004.5
2017-03-03T08:44:19.719Z,1004.51
2017-03-03T08:45:19.717Z,1004.45
2017-03-03T08:46:19.709Z,1004.38
2017-03-03T08:47:19.698Z,1004.37
2017-03-03T08:48:19.682Z,1004.33
2017-03-03T08:49:19.678Z,1004.38
2017-03-03T08:50:19.664Z,1004.37
2017-03-03T08:51:19.654Z,1004.32
2017-03-03T08:52:19.637Z,1004.27
2017-03-03T08:53:19.624Z,1004.22
2017-03-03T08:54:19.614Z,1004.21
2017-03-03T08:55:19.603Z,1004.21
2017-03-03T08:56:19.593Z,1004.14
2017-03-03T08:57:19.584Z,1004.09
2017-03-03T08:58:19.572Z,1004.08
2017-03-03T08:59:19.558Z,1004.06
2017-03-03T09:00:19.548Z,1004.07
2017-03-03T09:01:19.540Z,1004.06
2017-03-03T09:02:19.526Z,1004.05
2017-03-03T09:03:19.516Z,1004.04
2017-03-03T09:04:19.505Z,1004.03
2017-03-03T09:05:19.491Z,1003.97
2017-03-03T09:06:19.478Z,1003.92
2017-03-03T09:07:19.470Z,1003.92
2017-03-03T09:08:19.459Z,1003.9
2017-03-03T09:09:19.450Z,1003.91
2017-03-03T09:10:19.435Z,1003.87
2017-03-03T09:11:19.432Z,1003.85
2017-03-03T09:12:19.414Z,1003.88
2017-03-03T09:13:19.403Z,1003.86
2017-03-03T09:14:19.393Z,1003.84
2017-03-03T09:15:19.393Z,1003.81
2017-03-03T09:16:19.373Z,1003.84
2017-03-03T09:17:19.362Z,1003.8
2017-03-03T09:18:19.352Z,1003.77
2017-03-03T09:19:19.340Z,1003.83
2017-03-03T09:20:19.327Z,1003.74
2017-03-03T09:21:19.319Z,1003.79
2017-03-03T09:22:19.305Z,1003.72
2017-03-03T09:23:19.300Z,1003.69
2017-03-03T09:24:19.284Z,1003.66
2017-03-03T09:25:19.277Z,1003.6
2017-03-03T09:26:19.261Z,1003.59
2017-03-03T09:27:19.251Z,1003.55
2017-03-03T09:28:19.240Z,1003.43
2017-03-03T09:29:19.226Z,1003.53
2017-03-03T09:30:19.274Z,1003.46
2017-03-03T09:31:19.202Z,1003.51
2017-03-03T09:32:19.204Z,1003.47
2017-03-03T09:33:19.182Z,1003.49
2017-03-03T09:34:19.176Z,1003.49
2017-03-03T09:35:19.157Z,1003.4
2017-03-03T09:36:19.151Z,1003.44
2017-03-03T09:37:19.128Z,1003.38
2017-03-03T09:38:19.188Z,1003.39
2017-03-03T09:39:19.103Z,1003.35
2017-03-03T09:40:19.201Z,1003.39
2017-03-03T09:41:19.078Z,1003.34
2017-03-03T09:42:19.166Z,1003.28
2017-03-03T09:43:19.048Z,1003.24
2017-03-03T09:44:19.037Z,1003.24
2017-03-03T09:45:19.027Z,1003.16
2017-03-03T09:46:19.010Z,1003.16
2017-03-03T09:47:18.996Z,1003.1
2017-03-03T09:48:18.979Z,1003.11
2017-03-03T09:49:18.964Z,1003.09
2017-03-03T09:50:18.974Z,1003.05
2017-03-03T09:51:18.937Z,1003.03
2017-03-03T09:52:18.924Z,1002.98
2017-03-03T09:53:18.908Z,1003
2017-03-03T09:54:18.900Z,1002.9
2017-03-03T09:55:18.876Z,1002.88
2017-03-03T09:56:18.861Z,1002.85
2017-03-03T09:57:18.841Z,1002.83
2017-03-03T09:58:18.825Z,1002.77
2017-03-03T09:59:18.811Z,1002.78
2017-03-03T10:00:18.846Z,1002.76
2017-03-03T10:01:18.774Z,1002.73
2017-03-03T10:02:18.769Z,1002.69
2017-03-03T10:03:18.743Z,1002.67
2017-03-03T10:04:18.731Z,1002.69
2017-03-03T10:05:18.707Z,1002.69
2017-03-03T10:06:18.688Z,1002.57
2017-03-03T10:07:18.675Z,1002.66
2017-03-03T10:08:18.654Z,1002.61
2017-03-03T10:09:18.634Z,1002.61
2017-03-03T10:10:18.669Z,1002.54
2017-03-03T10:11:18.605Z,1002.48
2017-03-03T10:12:18.583Z,1002.5
2017-03-03T10:13:18.562Z,1002.49
2017-03-03T10:14:18.546Z,1002.51
2017-03-03T10:15:18.525Z,1002.51
2017-03-03T10:16:18.511Z,1002.42
2017-03-03T10:17:18.500Z,1002.44
2017-03-03T10:18:18.478Z,1002.39
2017-03-03T10:19:18.458Z,1002.34
2017-03-03T10:20:18.433Z,1002.36
2017-03-03T10:21:18.418Z,1002.37
2017-03-03T10:22:18.398Z,1002.38
2017-03-03T10:23:18.380Z,1002.26
2017-03-03T10:24:18.366Z,1002.28
2017-03-03T10:25:18.346Z,1002.2
2017-03-03T10:26:18.327Z,1002.23
2017-03-03T10:27:18.306Z,1002.23
2017-03-03T10:28:18.297Z,1002.19
2017-03-03T10:29:18.268Z,1002.2
2017-03-03T10:30:18.255Z,1002.23
2017-03-03T10:31:18.232Z,1002.17
2017-03-03T10:32:18.221Z,1002.12
2017-03-03T10:33:18.199Z,1002.04
2017-03-03T10:34:18.182Z,1002.04
2017-03-03T10:35:18.163Z,1002.07
2017-03-03T10:36:18.152Z,1002.02
2017-03-03T10:37:18.130Z,1002.03
2017-03-03T10:38:18.105Z,1002.05
2017-03-03T10:39:18.087Z,1002.08
2017-03-03T10:40:18.074Z,1002.1
2017-03-03T10:41:18.061Z,1002.03
2017-03-03T10:42:18.036Z,1002.09
2017-03-03T10:43:18.028Z,1002.04
2017-03-03T10:44:18.009Z,1001.99
2017-03-03T10:45:17.987Z,1001.96
2017-03-03T10:46:17.966Z,1002.02
2017-03-03T10:47:17.947Z,1001.95
2017-03-03T10:48:17.937Z,1001.93
2017-03-03T10:49:17.913Z,1001.89
2017-03-03T10:50:17.902Z,1001.92
2017-03-03T10:51:17.885Z,1001.89
2017-03-03T10:52:17.863Z,1001.83
2017-03-03T10:53:17.852Z,1001.73
2017-03-03T10:54:17.832Z,1001.83
2017-03-03T10:55:17.813Z,1001.77
2017-03-03T10:56:17.793Z,1001.7
2017-03-03T10:57:17.780Z,1001.62
2017-03-03T10:58:17.767Z,1001.67
2017-03-03T10:59:17.749Z,1001.66
2017-03-03T11:00:17.729Z,1001.6
2017-03-03T11:01:17.709Z,1001.54
2017-03-03T11:02:17.696Z,1001.58
2017-03-03T11:03:17.677Z,1001.48
2017-03-03T11:04:17.664Z,1001.47
2017-03-03T11:05:17.647Z,1001.47
2017-03-03T11:06:17.632Z,1001.48
2017-03-03T11:07:17.615Z,1001.39
2017-03-03T11:08:17.594Z,1001.36
2017-03-03T11:09:17.585Z,1001.36
2017-03-03T11:10:17.564Z,1001.47
2017-03-03T11:11:17.553Z,1001.27
2017-03-03T11:12:17.538Z,1001.3
2017-03-03T11:13:17.516Z,1001.24
2017-03-03T11:14:17.501Z,1001.24
2017-03-03T11:15:17.481Z,1001.19
2017-03-03T11:16:17.471Z,1001.2
2017-03-03T11:17:17.450Z,1001.16
2017-03-03T11:18:17.429Z,1001.11
2017-03-03T11:19:17.417Z,1001.15
2017-03-03T11:20:17.410Z,1001.08
2017-03-03T11:21:17.380Z,1001.08
2017-03-03T11:22:17.359Z,1001.03
2017-03-03T11:23:17.347Z,1001.01
2017-03-03T11:24:17.322Z,1001.01
2017-03-03T11:25:17.308Z,1000.9
2017-03-03T11:26:17.286Z,1000.96
2017-03-03T11:27:17.273Z,1000.98
2017-03-03T11:28:17.253Z,1000.94
2017-03-03T11:29:17.233Z,1000.99
2017-03-03T11:30:17.219Z,1000.97
2017-03-03T11:31:17.201Z,1000.91
2017-03-03T11:32:17.182Z,1000.91
2017-03-03T11:33:17.172Z,1000.87
2017-03-03T11:34:17.151Z,1000.86
2017-03-03T11:35:17.127Z,1000.83
2017-03-03T11:36:17.108Z,1000.87
2017-03-03T11:37:17.090Z,1000.78
2017-03-03T11:38:17.087Z,1000.81
2017-03-03T11:39:17.056Z,1000.79
2017-03-03T11:40:17.037Z,1000.76
2017-03-03T11:41:17.017Z,1000.78
2017-03-03T11:42:16.996Z,1000.75
2017-03-03T11:43:16.986Z,1000.72
2017-03-03T11:44:16.965Z,1000.76
2017-03-03T11:45:16.946Z,1000.69
2017-03-03T11:46:16.921Z,1000.71
2017-03-03T11:47:16.901Z,1000.69
2017-03-03T11:48:16.893Z,1000.73
2017-03-03T11:49:16.865Z,1000.7
2017-03-03T11:50:16.843Z,1000.66
2017-03-03T11:51:16.831Z,1000.64
2017-03-03T11:52:16.810Z,1000.59
2017-03-03T11:53:16.791Z,1000.52
2017-03-03T11:54:16.770Z,1000.53
2017-03-03T11:55:16.750Z,1000.53
2017-03-03T11:56:16.729Z,1000.48
2017-03-03T11:57:16.716Z,1000.39
2017-03-03T11:58:16.690Z,1000.39
2017-03-03T11:59:16.675Z,1000.35
2017-03-03T12:00:16.654Z,1000.25
2017-03-03T12:01:16.639Z,1000.35
2017-03-03T12:02:16.615Z,1000.21
2017-03-03T12:03:16.605Z,1000.24
2017-03-03T12:04:16.586Z,1000.19
2017-03-03T12:05:16.561Z,1000.12
2017-03-03T12:06:16.543Z,1000.07
2017-03-03T12:07:16.524Z,999.96
2017-03-03T12:08:16.505Z,999.99